createdAt,value
2019-03-22T00:00:48.423Z,9.03
2019-03-22T00:03:17.772Z,8.98
2019-03-22T00:05:47.100Z,8.93
2019-03-22T00:08:16.436Z,8.89
2019-03-22T00:10:45.765Z,8.83
2019-03-22T00:13:15.094Z,8.77
2019-03-22T00:15:44.745Z,8.74
2019-03-22T00:18:14.074Z,8.71
2019-03-22T00:20:43.410Z,8.68
2019-03-22T00:23:13.066Z,8.64
2019-03-22T00:25:42.398Z,8.63
2019-03-22T00:28:11.973Z,8.60
2019-03-22T00:30:41.386Z,8.57
2019-03-22T00:33:10.709Z,8.53
2019-03-22T00:35:40.042Z,8.49
2019-03-22T00:38:10.341Z,8.47
2019-03-22T00:40:40.031Z,8.44
2019-03-22T00:43:09.593Z,8.41
2019-03-22T00:45:38.931Z,8.36
2019-03-22T00:48:08.534Z,8.32
2019-03-22T00:50:37.866Z,8.31
2019-03-22T00:53:07.188Z,8.32
2019-03-22T00:55:36.517Z,8.31
2019-03-22T00:58:05.847Z,8.28
2019-03-22T01:00:35.182Z,8.24
2019-03-22T01:03:04.514Z,8.23
2019-03-22T01:05:33.873Z,8.21
2019-03-22T01:08:03.437Z,8.23
2019-03-22T01:10:32.770Z,8.21
2019-03-22T01:13:02.102Z,8.19
2019-03-22T01:15:31.767Z,8.16
2019-03-22T01:18:01.173Z,8.11
2019-03-22T01:20:30.508Z,8.08
2019-03-22T01:22:59.852Z,8.05
2019-03-22T01:25:29.190Z,8.03
2019-03-22T01:27:58.592Z,8.01
2019-03-22T01:30:27.940Z,7.98
2019-03-22T01:32:57.263Z,7.93
2019-03-22T01:35:26.605Z,7.89
2019-03-22T01:37:55.939Z,7.84
2019-03-22T01:40:25.279Z,7.80
2019-03-22T01:42:54.613Z,7.78
2019-03-22T01:45:23.953Z,7.70
2019-03-22T01:47:53.284Z,7.64
2019-03-22T01:50:22.631Z,7.61
2019-03-22T01:52:51.961Z,7.57
2019-03-22T01:55:21.345Z,7.51
2019-03-22T01:57:53.593Z,7.47
2019-03-22T02:00:21.724Z,7.45
2019-03-22T02:02:51.059Z,7.42
2019-03-22T02:05:20.765Z,7.41
2019-03-22T02:07:50.105Z,7.38
2019-03-22T02:10:19.692Z,7.37
2019-03-22T02:12:49.280Z,7.36
2019-03-22T02:15:18.685Z,7.32
2019-03-22T02:17:48.017Z,7.28
2019-03-22T02:20:19.017Z,7.27
2019-03-22T02:22:48.346Z,7.27
2019-03-22T02:25:17.676Z,7.22
2019-03-22T02:27:47.009Z,7.18
2019-03-22T02:30:17.782Z,7.17
2019-03-22T02:32:47.181Z,7.15
2019-03-22T02:35:28.498Z,7.09
2019-03-22T02:37:47.546Z,7.05
2019-03-22T02:40:16.908Z,7.04
2019-03-22T02:42:47.562Z,7.03
2019-03-22T02:45:17.369Z,7.00
2019-03-22T02:47:46.700Z,6.97
2019-03-22T02:50:19.017Z,6.95
2019-03-22T02:52:48.037Z,6.90
2019-03-22T02:55:17.654Z,6.86
2019-03-22T02:57:47.005Z,6.84
2019-03-22T03:00:19.542Z,6.85
2019-03-22T03:02:48.863Z,6.84
2019-03-22T03:05:18.263Z,6.77
2019-03-22T03:07:47.604Z,6.74
2019-03-22T03:10:17.782Z,6.72
2019-03-22T03:12:47.173Z,6.71
2019-03-22T03:15:17.544Z,6.73
2019-03-22T03:17:46.974Z,6.71
2019-03-22T03:20:18.031Z,6.72
2019-03-22T03:22:47.535Z,6.68
2019-03-22T03:25:18.014Z,6.66
2019-03-22T03:27:47.690Z,6.64
2019-03-22T03:30:22.984Z,6.66
2019-03-22T03:32:52.329Z,6.66
2019-03-22T03:35:21.651Z,6.66
2019-03-22T03:37:50.988Z,6.70
2019-03-22T03:40:20.342Z,6.67
2019-03-22T03:42:49.683Z,6.66
2019-03-22T03:45:36.034Z,6.66
2019-03-22T03:48:09.845Z,6.65
2019-03-22T03:50:38.427Z,6.62
2019-03-22T03:53:07.935Z,6.59
2019-03-22T03:55:37.351Z,6.56
2019-03-22T03:58:06.909Z,6.55
2019-03-22T04:00:36.250Z,6.53
2019-03-22T04:03:05.749Z,6.52
2019-03-22T04:05:35.069Z,6.50
2019-03-22T04:08:04.749Z,6.53
2019-03-22T04:10:34.080Z,6.51
2019-03-22T04:13:03.775Z,6.47
2019-03-22T04:15:34.094Z,6.46
2019-03-22T04:18:03.412Z,6.44
2019-03-22T04:20:32.739Z,6.42
2019-03-22T04:23:02.070Z,6.36
2019-03-22T04:25:31.404Z,6.34
2019-03-22T04:28:00.735Z,6.31
2019-03-22T04:30:31.339Z,6.28
2019-03-22T04:33:00.676Z,6.26
2019-03-22T04:35:30.005Z,6.27
2019-03-22T04:37:59.364Z,6.31
2019-03-22T04:40:29.733Z,6.31
2019-03-22T04:42:59.061Z,6.28
2019-03-22T04:45:33.468Z,6.27
2019-03-22T04:48:08.770Z,6.25
2019-03-22T04:50:41.158Z,6.16
2019-03-22T04:53:13.795Z,6.12
2019-03-22T04:55:45.955Z,6.08
2019-03-22T04:58:17.714Z,6.07
2019-03-22T05:00:47.986Z,6.05
2019-03-22T05:03:18.670Z,6.05
2019-03-22T05:05:49.541Z,6.02
2019-03-22T05:08:20.611Z,6.00
2019-03-22T05:10:50.479Z,5.95
2019-03-22T05:13:21.426Z,5.93
2019-03-22T05:15:51.230Z,5.89
2019-03-22T05:18:21.002Z,5.85
2019-03-22T05:20:52.275Z,5.84
2019-03-22T05:23:23.708Z,5.84
2019-03-22T05:25:56.102Z,5.80
2019-03-22T05:28:28.075Z,5.79
2019-03-22T05:31:11.988Z,5.74
2019-03-22T05:33:41.321Z,5.74
2019-03-22T05:36:10.654Z,5.71
2019-03-22T05:38:39.985Z,5.72
2019-03-22T05:41:09.339Z,5.70
2019-03-22T05:43:38.665Z,5.68
2019-03-22T05:46:08.010Z,5.65
2019-03-22T05:48:37.330Z,5.63
2019-03-22T05:51:06.698Z,5.57
2019-03-22T05:53:35.995Z,5.58
2019-03-22T05:56:08.026Z,5.56
2019-03-22T05:58:37.347Z,5.56
2019-03-22T06:01:07.006Z,5.55
2019-03-22T06:03:36.333Z,5.55
2019-03-22T06:06:05.671Z,5.55
2019-03-22T06:08:34.997Z,5.53
2019-03-22T06:11:04.739Z,5.53
2019-03-22T06:13:34.065Z,5.51
2019-03-22T06:16:04.480Z,5.53
2019-03-22T06:18:33.805Z,5.57
2019-03-22T06:21:03.142Z,5.64
2019-03-22T06:23:32.471Z,5.68
2019-03-22T06:26:01.968Z,5.70
2019-03-22T06:28:31.296Z,5.74
2019-03-22T06:31:00.902Z,5.77
2019-03-22T06:33:30.229Z,5.79
2019-03-22T06:35:59.574Z,5.84
2019-03-22T06:38:28.902Z,5.89
2019-03-22T06:40:58.242Z,5.94
2019-03-22T06:43:27.638Z,5.98
2019-03-22T06:45:56.967Z,6.02
2019-03-22T06:48:26.598Z,6.07
2019-03-22T06:50:56.212Z,6.12
2019-03-22T06:53:25.541Z,6.17
2019-03-22T06:55:54.875Z,6.24
2019-03-22T06:58:24.524Z,6.30
2019-03-22T07:00:55.166Z,6.38
2019-03-22T07:03:24.494Z,6.40
2019-03-22T07:05:53.827Z,6.45
2019-03-22T07:08:23.169Z,6.51
2019-03-22T07:10:52.770Z,6.53
2019-03-22T07:13:23.407Z,6.60
2019-03-22T07:15:52.734Z,6.64
2019-03-22T07:18:22.068Z,6.71
2019-03-22T07:20:51.409Z,6.73
2019-03-22T07:23:21.019Z,6.77
2019-03-22T07:25:50.631Z,6.80
2019-03-22T07:28:19.962Z,6.86
2019-03-22T07:30:49.297Z,6.93
2019-03-22T07:33:18.636Z,6.98
2019-03-22T07:35:47.967Z,7.04
2019-03-22T07:38:17.302Z,7.12
2019-03-22T07:40:46.637Z,7.18
2019-03-22T07:43:15.979Z,7.26
2019-03-22T07:45:45.651Z,7.32
2019-03-22T07:48:14.998Z,7.37
2019-03-22T07:50:44.331Z,7.48
2019-03-22T07:53:13.668Z,7.56
2019-03-22T07:55:43.000Z,7.64
2019-03-22T07:58:12.564Z,7.72
2019-03-22T08:00:41.893Z,7.79
2019-03-22T08:03:11.236Z,7.88
2019-03-22T08:05:50.969Z,7.96
2019-03-22T08:08:11.913Z,8.00
2019-03-22T08:10:41.273Z,8.08
2019-03-22T08:13:10.594Z,8.19
2019-03-22T08:15:39.924Z,8.28
2019-03-22T08:18:09.326Z,8.40
2019-03-22T08:20:39.043Z,8.52
2019-03-22T08:23:22.619Z,8.59
2019-03-22T08:25:51.947Z,8.67
2019-03-22T08:28:21.295Z,8.77
2019-03-22T08:30:50.690Z,8.87
2019-03-22T08:33:20.049Z,8.98
2019-03-22T08:35:49.376Z,9.05
2019-03-22T08:38:18.736Z,9.20
2019-03-22T08:40:48.032Z,9.32
2019-03-22T08:43:17.390Z,9.38
2019-03-22T08:45:46.703Z,9.49
2019-03-22T08:48:16.032Z,9.57
2019-03-22T08:50:45.362Z,9.67
2019-03-22T08:53:16.060Z,9.78
2019-03-22T08:55:45.367Z,9.82
2019-03-22T08:58:14.699Z,9.92
2019-03-22T09:00:56.613Z,10.00
2019-03-22T09:03:15.388Z,10.16
2019-03-22T09:05:44.723Z,10.36
2019-03-22T09:08:16.110Z,10.40
2019-03-22T09:10:45.131Z,10.50
2019-03-22T09:13:14.442Z,10.62
2019-03-22T09:15:43.843Z,10.70
2019-03-22T09:18:15.437Z,10.81
2019-03-22T09:20:44.218Z,10.97
2019-03-22T09:23:13.573Z,11.06
2019-03-22T09:25:42.911Z,11.16
2019-03-22T09:28:12.223Z,11.30
2019-03-22T09:30:41.623Z,11.43
2019-03-22T09:33:13.338Z,11.59
2019-03-22T09:35:41.983Z,11.65
2019-03-22T09:38:13.035Z,11.79
2019-03-22T09:40:42.678Z,11.88
2019-03-22T09:43:12.087Z,11.97
2019-03-22T09:45:41.422Z,12.12
2019-03-22T09:48:10.815Z,12.25
2019-03-22T09:50:40.165Z,12.29
2019-03-22T09:53:09.555Z,12.41
2019-03-22T09:55:38.889Z,12.49
2019-03-22T09:58:08.177Z,12.63
2019-03-22T10:00:37.531Z,12.72
2019-03-22T10:03:06.860Z,12.85
2019-03-22T10:05:36.227Z,12.94
2019-03-22T10:08:05.847Z,13.01
2019-03-22T10:10:35.195Z,13.16
2019-03-22T10:13:04.503Z,13.25
2019-03-22T10:15:33.912Z,13.39
2019-03-22T10:18:03.251Z,13.44
2019-03-22T10:20:32.592Z,13.58
2019-03-22T10:23:01.979Z,13.65
2019-03-22T10:25:31.276Z,13.80
2019-03-22T10:28:00.613Z,13.87
2019-03-22T10:30:30.628Z,14.05
2019-03-22T10:32:59.964Z,14.13
2019-03-22T10:35:29.316Z,14.25
2019-03-22T10:38:00.851Z,14.42
2019-03-22T10:40:29.703Z,14.48
2019-03-22T10:42:59.108Z,14.65
2019-03-22T10:45:28.410Z,14.82
2019-03-22T10:47:57.718Z,14.97
2019-03-22T10:50:27.096Z,15.13
2019-03-22T10:52:56.414Z,15.28
2019-03-22T10:55:30.456Z,15.44
2019-03-22T10:57:56.772Z,15.58
2019-03-22T11:00:26.109Z,15.71
2019-03-22T11:02:55.445Z,15.95
2019-03-22T11:05:24.787Z,16.26
2019-03-22T11:07:54.124Z,16.59
2019-03-22T11:10:23.462Z,17.03
2019-03-22T11:12:52.800Z,17.41
2019-03-22T11:15:23.925Z,17.90
2019-03-22T11:17:53.430Z,18.43
2019-03-22T11:20:22.758Z,18.90
2019-03-22T11:22:52.093Z,19.38
2019-03-22T11:25:21.429Z,19.95
2019-03-22T11:27:50.758Z,20.46
2019-03-22T11:30:20.234Z,21.10
2019-03-22T11:32:49.569Z,21.81
2019-03-22T11:35:18.896Z,22.61
2019-03-22T11:37:48.300Z,23.30
2019-03-22T11:40:18.373Z,23.83
2019-03-22T11:42:47.769Z,24.25
2019-03-22T11:45:24.679Z,24.48
2019-03-22T11:47:54.145Z,24.88
2019-03-22T11:50:23.495Z,25.24
2019-03-22T11:52:52.889Z,25.55
2019-03-22T11:55:22.331Z,25.93
2019-03-22T11:57:52.116Z,26.37
2019-03-22T12:00:24.384Z,26.84
2019-03-22T12:02:54.038Z,27.41
2019-03-22T12:05:23.571Z,27.96
2019-03-22T12:07:54.528Z,28.31
2019-03-22T12:10:24.123Z,28.63
2019-03-22T12:12:53.524Z,28.71
2019-03-22T12:15:23.802Z,28.98
2019-03-22T12:17:53.206Z,29.33
2019-03-22T12:20:23.688Z,29.59
2019-03-22T12:22:53.497Z,29.65
2019-03-22T12:25:25.247Z,29.93
2019-03-22T12:27:54.572Z,30.11
2019-03-22T12:30:23.910Z,30.40
2019-03-22T12:32:53.308Z,30.51
2019-03-22T12:35:22.650Z,30.72
2019-03-22T12:37:52.014Z,30.97
2019-03-22T12:40:22.954Z,31.19
2019-03-22T12:42:52.356Z,31.35
2019-03-22T12:45:30.070Z,31.30
2019-03-22T12:47:59.403Z,31.59
2019-03-22T12:50:28.804Z,31.86
2019-03-22T12:52:58.134Z,31.61
2019-03-22T12:55:27.474Z,31.72
2019-03-22T12:57:56.804Z,32.08
2019-03-22T13:00:26.768Z,32.25
2019-03-22T13:02:56.163Z,32.00
2019-03-22T13:05:25.506Z,32.30
2019-03-22T13:07:54.832Z,32.24
2019-03-22T13:10:26.113Z,32.64
2019-03-22T13:12:55.847Z,32.86
2019-03-22T13:15:25.418Z,33.06
2019-03-22T13:17:54.746Z,33.09
2019-03-22T13:20:24.078Z,33.36
2019-03-22T13:22:53.406Z,33.41
2019-03-22T13:25:22.740Z,33.20
2019-03-22T13:27:52.095Z,33.48
2019-03-22T13:30:29.969Z,33.19
2019-03-22T13:32:59.471Z,32.96
2019-03-22T13:35:28.800Z,33.30
2019-03-22T13:37:58.438Z,33.58
2019-03-22T13:40:27.764Z,33.84
2019-03-22T13:42:57.099Z,34.17
2019-03-22T13:45:26.759Z,34.25
2019-03-22T13:47:56.220Z,34.13
2019-03-22T13:50:25.552Z,34.29
2019-03-22T13:52:55.029Z,33.85
2019-03-22T13:55:24.377Z,33.75
2019-03-22T13:57:53.700Z,33.95
2019-03-22T14:00:23.032Z,33.97
2019-03-22T14:03:02.120Z,34.23
2019-03-22T14:05:23.805Z,34.36
2019-03-22T14:07:53.190Z,34.31
2019-03-22T14:10:30.050Z,34.51
2019-03-22T14:13:01.021Z,34.57
2019-03-22T14:15:30.662Z,34.79
2019-03-22T14:18:00.436Z,34.94
2019-03-22T14:20:30.496Z,34.91
2019-03-22T14:22:59.840Z,34.08
2019-03-22T14:25:29.238Z,34.40
2019-03-22T14:27:58.737Z,34.67
2019-03-22T14:30:28.137Z,34.85
2019-03-22T14:32:57.480Z,34.74
2019-03-22T14:35:28.508Z,34.42
2019-03-22T14:37:57.912Z,33.96
2019-03-22T14:40:27.236Z,33.77
2019-03-22T14:42:56.579Z,33.87
2019-03-22T14:45:26.028Z,33.58
2019-03-22T14:47:55.292Z,33.04
2019-03-22T14:50:24.622Z,32.72
2019-03-22T14:52:53.947Z,32.55
2019-03-22T14:55:23.320Z,32.11
2019-03-22T14:57:52.993Z,31.63
2019-03-22T15:00:22.348Z,31.18
2019-03-22T15:02:51.983Z,31.03
2019-03-22T15:05:21.313Z,30.52
2019-03-22T15:07:50.634Z,30.43
2019-03-22T15:10:19.961Z,30.12
2019-03-22T15:12:49.288Z,29.85
2019-03-22T15:15:20.268Z,29.85
2019-03-22T15:17:51.238Z,29.82
2019-03-22T15:20:22.438Z,29.69
2019-03-22T15:22:53.396Z,29.68
2019-03-22T15:25:40.496Z,29.81
2019-03-22T15:28:11.460Z,29.56
2019-03-22T15:30:58.436Z,28.86
2019-03-22T15:33:38.549Z,28.64
2019-03-22T15:36:18.487Z,28.80
2019-03-22T15:38:55.721Z,28.79
2019-03-22T15:41:25.200Z,28.47
2019-03-22T15:43:54.582Z,27.90
2019-03-22T15:46:23.874Z,27.89
2019-03-22T15:48:53.201Z,27.75
2019-03-22T15:51:22.532Z,27.51
2019-03-22T15:53:51.860Z,27.34
2019-03-22T15:56:21.188Z,27.36
2019-03-22T15:58:50.507Z,26.88
2019-03-22T16:01:19.841Z,26.80
2019-03-22T16:03:49.180Z,26.56
2019-03-22T16:06:18.513Z,26.19
2019-03-22T16:08:47.920Z,26.13
2019-03-22T16:11:17.196Z,25.93
2019-03-22T16:13:46.521Z,25.85
2019-03-22T16:16:15.851Z,25.64
2019-03-22T16:18:45.183Z,25.40
2019-03-22T16:21:14.571Z,25.31
2019-03-22T16:23:43.897Z,25.20
2019-03-22T16:26:13.268Z,24.86
2019-03-22T16:28:42.598Z,24.45
2019-03-22T16:31:11.929Z,24.25
2019-03-22T16:33:41.259Z,24.09
2019-03-22T16:36:11.656Z,24.07
2019-03-22T16:38:40.988Z,23.90
2019-03-22T16:41:10.326Z,23.83
2019-03-22T16:43:39.656Z,23.65
2019-03-22T16:46:09.325Z,23.58
2019-03-22T16:48:38.661Z,23.55
2019-03-22T16:51:08.050Z,23.36
2019-03-22T16:53:37.649Z,22.87
2019-03-22T16:56:06.974Z,22.65
2019-03-22T16:58:36.303Z,22.58
2019-03-22T17:01:06.670Z,22.57
2019-03-22T17:03:36.005Z,22.44
2019-03-22T17:06:05.399Z,22.51
2019-03-22T17:08:34.719Z,22.42
2019-03-22T17:11:04.046Z,22.37
2019-03-22T17:13:33.374Z,22.32
2019-03-22T17:16:02.707Z,22.22
2019-03-22T17:18:32.038Z,22.02
2019-03-22T17:21:01.459Z,21.98
2019-03-22T17:23:30.750Z,21.84
2019-03-22T17:26:00.081Z,21.79
2019-03-22T17:28:29.400Z,21.70
2019-03-22T17:30:58.719Z,21.60
2019-03-22T17:33:28.052Z,21.52
2019-03-22T17:35:57.370Z,21.38
2019-03-22T17:38:26.702Z,21.27
2019-03-22T17:40:56.025Z,21.22
2019-03-22T17:43:25.361Z,21.13
2019-03-22T17:45:54.694Z,21.04
2019-03-22T17:48:24.020Z,20.97
2019-03-22T17:50:53.345Z,20.84
2019-03-22T17:53:22.682Z,20.75
2019-03-22T17:55:52.013Z,20.61
2019-03-22T17:58:21.347Z,20.46
2019-03-22T18:00:50.831Z,20.34
2019-03-22T18:03:20.159Z,20.18
2019-03-22T18:05:49.487Z,20.02
2019-03-22T18:08:18.826Z,19.88
2019-03-22T18:10:48.149Z,19.75
2019-03-22T18:13:17.481Z,19.58
2019-03-22T18:15:46.807Z,19.44
2019-03-22T18:18:16.155Z,19.29
2019-03-22T18:20:45.471Z,19.15
2019-03-22T18:23:14.811Z,19.01
2019-03-22T18:25:44.135Z,18.86
2019-03-22T18:28:13.466Z,18.70
2019-03-22T18:30:42.792Z,18.53
2019-03-22T18:33:12.121Z,18.37
2019-03-22T18:35:41.453Z,18.22
2019-03-22T18:38:11.750Z,18.05
2019-03-22T18:40:41.077Z,17.89
2019-03-22T18:43:10.397Z,17.75
2019-03-22T18:45:39.721Z,17.59
2019-03-22T18:48:09.096Z,17.48
2019-03-22T18:50:38.693Z,17.36
2019-03-22T18:53:08.021Z,17.28
2019-03-22T18:55:37.358Z,17.10
2019-03-22T18:58:06.713Z,16.93
2019-03-22T19:00:36.067Z,16.78
2019-03-22T19:03:05.424Z,16.65
2019-03-22T19:05:34.764Z,16.45
2019-03-22T19:08:04.328Z,16.36
2019-03-22T19:10:33.668Z,16.20
2019-03-22T19:13:02.988Z,16.13
2019-03-22T19:15:32.322Z,15.95
2019-03-22T19:18:01.653Z,15.79
2019-03-22T19:20:30.981Z,15.69
2019-03-22T19:23:00.309Z,15.56
2019-03-22T19:25:29.648Z,15.40
2019-03-22T19:27:59.540Z,15.23
2019-03-22T19:30:28.865Z,15.11
2019-03-22T19:32:58.194Z,14.99
2019-03-22T19:35:27.530Z,14.87
2019-03-22T19:37:56.864Z,14.76
2019-03-22T19:40:26.194Z,14.66
2019-03-22T19:42:55.516Z,14.55
2019-03-22T19:45:24.845Z,14.44
2019-03-22T19:47:54.269Z,14.32
2019-03-22T19:50:23.602Z,14.20
2019-03-22T19:52:52.927Z,14.10
2019-03-22T19:55:22.271Z,13.98
2019-03-22T19:57:51.618Z,13.88
2019-03-22T20:00:21.001Z,13.79
2019-03-22T20:02:50.578Z,13.66
2019-03-22T20:05:35.218Z,13.56
2019-03-22T20:08:04.793Z,13.46
2019-03-22T20:10:34.131Z,13.36
2019-03-22T20:13:03.458Z,13.28
2019-03-22T20:15:33.768Z,13.20
2019-03-22T20:18:03.104Z,13.11
2019-03-22T20:20:32.464Z,13.04
2019-03-22T20:23:01.794Z,12.93
2019-03-22T20:25:31.127Z,12.84
2019-03-22T20:28:00.467Z,12.76
2019-03-22T20:30:29.803Z,12.68
2019-03-22T20:32:59.133Z,12.63
2019-03-22T20:35:28.466Z,12.58
2019-03-22T20:37:57.800Z,12.56
2019-03-22T20:40:27.128Z,12.51
2019-03-22T20:42:56.465Z,12.42
2019-03-22T20:45:25.797Z,12.33
2019-03-22T20:47:55.138Z,12.28
2019-03-22T20:50:35.135Z,12.25
2019-03-22T20:52:55.500Z,12.22
2019-03-22T20:55:24.834Z,12.17
2019-03-22T20:57:54.460Z,12.13
2019-03-22T21:00:23.788Z,12.04
2019-03-22T21:02:53.118Z,11.98
2019-03-22T21:05:26.828Z,11.91
2019-03-22T21:07:53.478Z,11.88
2019-03-22T21:10:23.114Z,11.82
2019-03-22T21:12:52.457Z,11.74
2019-03-22T21:15:24.707Z,11.68
2019-03-22T21:17:52.821Z,11.61
2019-03-22T21:20:22.157Z,11.54
2019-03-22T21:22:51.485Z,11.64
2019-03-22T21:25:20.818Z,11.79
2019-03-22T21:27:50.480Z,11.79
2019-03-22T21:30:20.687Z,11.76
2019-03-22T21:32:50.898Z,11.71
2019-03-22T21:35:22.697Z,11.65
2019-03-22T21:37:51.691Z,11.55
2019-03-22T21:40:21.303Z,11.47
2019-03-22T21:42:50.649Z,11.42
2019-03-22T21:45:19.991Z,11.37
2019-03-22T21:47:49.311Z,11.30
2019-03-22T21:50:18.642Z,11.29
2019-03-22T21:52:48.306Z,11.23
2019-03-22T21:55:17.660Z,11.15
2019-03-22T21:57:47.003Z,11.08
2019-03-22T22:00:16.619Z,10.99
2019-03-22T22:02:46.027Z,10.90
2019-03-22T22:05:15.362Z,10.85
2019-03-22T22:07:44.853Z,10.80
2019-03-22T22:10:14.258Z,10.71
2019-03-22T22:12:43.591Z,10.66
2019-03-22T22:15:12.920Z,10.59
2019-03-22T22:17:42.524Z,10.53
2019-03-22T22:20:12.106Z,10.48
2019-03-22T22:22:41.449Z,10.44
2019-03-22T22:25:10.780Z,10.39
2019-03-22T22:27:40.115Z,10.37
2019-03-22T22:30:13.678Z,10.30
2019-03-22T22:32:43.010Z,10.25
2019-03-22T22:35:12.419Z,10.24
2019-03-22T22:37:41.755Z,10.32
2019-03-22T22:40:12.333Z,10.50
2019-03-22T22:42:41.907Z,10.71
2019-03-22T22:45:11.990Z,10.95
2019-03-22T22:47:41.323Z,11.07
2019-03-22T22:50:11.898Z,11.14
2019-03-22T22:52:41.224Z,11.27
2019-03-22T22:55:11.804Z,11.34
2019-03-22T22:57:41.134Z,11.41
2019-03-22T23:00:17.277Z,11.54
2019-03-22T23:02:48.304Z,11.61
2019-03-22T23:05:17.647Z,11.68
2019-03-22T23:07:46.981Z,11.68
2019-03-22T23:10:16.326Z,11.73
2019-03-22T23:12:45.661Z,11.69
2019-03-22T23:15:15.372Z,11.73
2019-03-22T23:17:45.027Z,11.76
2019-03-22T23:20:14.451Z,11.73
2019-03-22T23:22:43.784Z,11.72
2019-03-22T23:25:13.116Z,11.68
2019-03-22T23:27:42.457Z,11.64
2019-03-22T23:30:12.932Z,11.71
2019-03-22T23:32:42.575Z,11.69
2019-03-22T23:35:12.054Z,11.62
2019-03-22T23:37:41.386Z,11.59
2019-03-22T23:40:12.177Z,11.58
2019-03-22T23:42:41.519Z,11.61
2019-03-22T23:45:11.557Z,11.65
2019-03-22T23:47:41.145Z,11.65
2019-03-22T23:50:12.056Z,11.62
2019-03-22T23:52:41.395Z,11.55
2019-03-22T23:55:10.871Z,11.48
2019-03-22T23:57:40.203Z,11.39
